Time;durP1;ratioP1;P1;durP2;ratioP2;P2;SDS_P1;SDS_P2;PMS_P1;PMS_P2;Temp;Humidity;BMP_temperature;BMP_pressure;BME280_temperature;BME280_humidity;BME280_pressure;Samples;Min_cycle;Max_cycle;Signal;HPM_P1;HPM_P2
2022/05/19 02:46:27;;;;;;;0.80;0.60;;;;;;;-145.06;100.00;60892.56;5217841;23;20658;-92
2022/05/19 02:49:51;;;;;;;0.60;0.47;;;;;;;-145.06;100.00;60892.56;4772102;29;20051;-92
2022/05/19 02:53:01;;;;;;;;;;;;;;;;;;;;;
2022/05/19 02:56:50;;;;;;;0.63;0.30;;;;;;;-145.06;100.00;60892.56;4767737;29;20031;-94
2022/05/19 02:59:33;;;;;;;1.35;0.40;;;;;;;-145.06;100.00;60892.56;4746034;29;20032;-93
2022/05/19 03:02:36;;;;;;;0.70;0.52;;;;;;;-145.06;100.00;60892.56;4753442;29;20032;-93
2022/05/19 03:05:41;;;;;;;0.52;0.45;;;;;;;-145.06;100.00;60892.56;4753521;29;20032;-93
2022/05/19 03:09:45;;;;;;;0.47;0.40;;;;;;;-145.06;100.00;60892.56;4753493;29;20040;-92
2022/05/19 03:13:22;;;;;;;0.40;0.30;;;;;;;-145.06;100.00;60892.56;4767342;29;20032;-92
2022/05/19 03:16:50;;;;;;;0.45;0.40;;;;;;;-145.06;100.00;60892.56;4753144;29;20039;-93
2022/05/19 03:27:25;;;;;;;;;;;;;;;;;;;;;
2022/05/19 03:31:12;;;;;;;;;;;;;;;;;;;;;
2022/05/19 03:34:18;;;;;;;0.70;0.50;;;;;;;-145.06;100.00;60892.56;4767163;29;20051;-93
2022/05/19 03:37:37;;;;;;;0.73;0.60;;;;;;;-145.06;100.00;60892.56;4753078;29;20032;-93
2022/05/19 03:45:27;;;;;;;0.65;0.57;;;;;;;-145.06;100.00;60892.56;5415839;23;20060;-93
2022/05/19 12:51:08;;;;;;;20.38;3.03;;;;;;;-145.06;100.00;60892.56;5617721;23;20597;-93
2022/05/19 12:53:53;;;;;;;18.15;3.08;;;;;;;-145.06;100.00;60892.56;4788560;28;20041;-93
2022/05/19 12:56:41;;;;;;;11.60;1.90;;;;;;;-145.06;100.00;60892.56;4820487;28;20030;-92
2022/05/19 12:59:23;;;;;;;8.68;1.60;;;;;;;-145.06;100.00;60892.56;4826236;28;20120;-91
2022/05/19 13:02:08;;;;;;;7.13;1.40;;;;;;;-145.06;100.00;60892.56;4817486;28;20034;-92
2022/05/19 13:05:00;;;;;;;4.80;1.20;;;;;;;-145.06;100.00;60892.56;4841261;28;20033;-92
2022/05/19 13:10:52;;;;;;;3.05;0.90;;;;;;;-145.06;100.00;60892.56;4833223;28;20041;-92
2022/05/19 13:13:58;;;;;;;1.75;0.73;;;;;;;-145.06;100.00;60892.56;4827412;28;20038;-92
2022/05/19 13:16:41;;;;;;;2.08;0.90;;;;;;;-145.06;100.00;60892.56;4800576;28;21092;-89
2022/05/19 13:19:24;;;;;;;1.98;0.65;;;;;;;-145.06;100.00;60892.56;4814201;28;20037;-88
2022/05/19 13:22:10;;;;;;;2.50;1.15;;;;;;;-145.06;100.00;60892.56;4820515;28;20030;-91
2022/05/19 13:24:49;;;;;;;1.73;0.73;;;;;;;-145.06;100.00;60892.56;4803152;28;20038;-90
2022/05/19 13:30:45;;;;;;;2.80;1.10;;;;;;;-145.06;100.00;60892.56;4828832;28;20069;-89
2022/05/19 13:33:29;;;;;;;0.80;0.55;;;;;;;-145.06;100.00;60892.56;4816446;28;20141;-91
2022/05/19 13:36:11;;;;;;;1.33;0.50;;;;;;;-145.06;100.00;60892.56;4820641;28;20034;-91
2022/05/19 13:39:07;;;;;;;0.73;0.40;;;;;;;-145.06;100.00;60892.56;4819920;28;20069;-90
2022/05/19 13:41:52;;;;;;;2.47;0.65;;;;;;;-145.06;100.00;60892.56;4823096;28;20030;-90
2022/05/19 13:44:47;;;;;;;1.17;0.50;;;;;;;-145.06;100.00;60892.56;4820344;28;20612;-91
2022/05/19 13:47:28;;;;;;;0.95;0.50;;;;;;;-145.06;100.00;60892.56;4815098;28;20045;-90
2022/05/19 13:50:15;;;;;;;1.85;0.68;;;;;;;-145.06;100.00;60892.56;4819552;28;20042;-92
2022/05/19 13:53:00;;;;;;;1.02;0.30;;;;;;;-145.06;100.00;60892.56;4819072;28;20046;-90
2022/05/19 13:55:39;;;;;;;1.27;0.35;;;;;;;22.31;100.00;60892.56;4813760;28;20026;-89
2022/05/19 13:58:18;;;;;;;;;;;;;;;-145.06;100.00;60892.56;4814435;28;20038;-90
2022/05/19 14:00:58;;;;;;;0.75;0.40;;;;;;;-145.06;100.00;60892.56;4819526;28;20617;-93
2022/05/19 14:03:40;;;;;;;1.65;0.30;;;;;;;22.19;100.00;60892.56;4815506;28;20033;-91
2022/05/19 14:06:22;;;;;;;1.00;0.30;;;;;;;-145.06;100.00;60892.56;4817060;28;20030;-90
2022/05/19 14:09:04;;;;;;;3.72;0.43;;;;;;;-145.06;100.00;60892.56;4820829;28;20046;-90
2022/05/19 14:11:43;;;;;;;0.85;0.60;;;;;;;-145.06;100.00;60892.56;4834497;28;20034;-90
2022/05/19 14:14:23;;;;;;;0.40;0.38;;;;;;;-145.06;100.00;60892.56;4827763;28;20037;-90
2022/05/19 14:17:02;;;;;;;0.70;0.28;;;;;;;-145.06;100.00;60892.56;4818373;28;20062;-90
2022/05/19 14:19:42;;;;;;;1.40;0.35;;;;;;;-145.06;100.00;60892.56;4822998;28;20117;-91
2022/05/19 14:22:22;;;;;;;0.52;0.40;;;;;;;-145.06;100.00;60892.56;4822919;28;20496;-90
2022/05/19 14:25:04;;;;;;;0.70;0.40;;;;;;;-145.06;100.00;60892.56;4820808;28;20034;-90
2022/05/19 14:27:44;;;;;;;1.30;0.38;;;;;;;-145.06;100.00;60892.56;4820692;28;20503;-90
2022/05/19 14:30:36;;;;;;;0.57;0.30;;;;;;;-145.06;100.00;60892.56;4823122;28;20034;-91
2022/05/19 14:33:21;;;;;;;1.10;0.20;;;;;;;-145.06;100.00;60892.56;4822212;28;20503;-90
2022/05/19 14:36:05;;;;;;;0.35;0.30;;;;;;;-145.06;100.00;60892.56;4814798;28;20353;-89
2022/05/19 14:38:56;;;;;;;0.93;0.30;;;;;;;-145.06;100.00;60892.56;4820648;28;20038;-91
2022/05/19 14:44:40;;;;;;;1.05;0.28;;;;;;;-145.06;100.00;60892.56;4835527;28;20030;-90
2022/05/19 14:47:33;;;;;;;0.95;0.38;;;;;;;-145.06;100.00;60892.56;4824140;28;20038;-91
2022/05/19 14:50:32;;;;;;;0.32;0.30;;;;;;;-145.06;100.00;60892.56;4814275;28;20026;-90
2022/05/19 14:53:16;;;;;;;0.80;0.20;;;;;;;-145.06;100.00;60892.56;4818092;28;20038;-91
2022/05/19 14:56:04;;;;;;;0.30;0.30;;;;;;;-145.06;100.00;60892.56;4824604;28;20065;-90
2022/05/19 14:59:01;;;;;;;0.40;0.20;;;;;;;-145.06;100.00;60892.56;4822611;28;20112;-90
2022/05/19 15:01:41;;;;;;;1.55;0.40;;;;;;;-145.06;100.00;60892.56;4816250;28;20369;-90
2022/05/19 15:04:20;;;;;;;1.80;0.40;;;;;;;-145.06;100.00;60892.56;4818575;28;20038;-89
2022/05/19 15:07:04;;;;;;;0.40;0.25;;;;;;;-145.06;100.00;60892.56;4828627;28;20077;-90
2022/05/19 15:09:44;;;;;;;0.77;0.35;;;;;;;-145.06;100.00;60892.56;4814593;28;20073;-89
2022/05/19 15:12:23;;;;;;;0.35;0.20;;;;;;;-145.06;100.00;60892.56;4821095;28;20033;-89
2022/05/19 15:15:02;;;;;;;0.47;0.23;;;;;;;-145.06;100.00;60892.56;4820739;28;20046;-89
2022/05/19 15:17:50;;;;;;;0.30;0.20;;;;;;;-145.06;100.00;60892.56;4835219;28;20034;-90
2022/05/19 15:20:31;;;;;;;0.85;0.30;;;;;;;-145.06;100.00;60892.56;4826077;28;20041;-92
2022/05/19 15:23:13;;;;;;;0.77;0.30;;;;;;;-145.06;100.00;60892.56;4821483;28;20033;-91
2022/05/19 15:25:52;;;;;;;0.60;0.20;;;;;;;-145.06;100.00;60892.56;4816260;28;20061;-89
2022/05/19 15:29:16;;;;;;;1.20;0.40;;;;;;;-145.06;100.00;60892.56;4827243;28;20029;-93
2022/05/19 15:32:17;;;;;;;0.80;0.30;;;;;;;-145.06;100.00;60892.56;5150821;23;20308;-91
2022/05/19 15:35:05;;;;;;;0.85;0.40;;;;;;;-145.06;100.00;60892.56;4810148;28;20054;-91
2022/05/19 15:41:54;;;;;;;0.73;0.38;;;;;;;-145.06;100.00;60892.56;5462738;23;20076;-90
2022/05/19 15:44:39;;;;;;;0.30;0.20;;;;;;;21.64;100.00;60892.56;4812110;28;20500;-92
2022/05/19 15:47:26;;;;;;;0.57;0.30;;;;;;;-145.06;100.00;60892.56;4804864;28;20038;-92
2022/05/19 15:50:31;;;;;;;0.50;0.30;;;;;;;-145.06;100.00;60892.56;4801124;28;20058;-91
2022/05/19 15:53:13;;;;;;;0.30;0.20;;;;;;;-145.06;100.00;60892.56;4806521;28;20034;-92
2022/05/19 15:55:52;;;;;;;0.77;0.25;;;;;;;-145.06;100.00;60892.56;4804644;28;20473;-91
2022/05/19 15:58:32;;;;;;;0.80;0.30;;;;;;;-145.06;100.00;60892.56;4804592;28;20038;-91
2022/05/19 16:01:11;;;;;;;1.00;0.30;;;;;;;-145.06;100.00;60892.56;4804265;28;20074;-91
2022/05/19 16:03:50;;;;;;;0.15;0.15;;;;;;;-145.06;100.00;60892.56;4804190;28;20041;-91
2022/05/19 16:06:29;;;;;;;0.77;0.40;;;;;;;-145.06;100.00;60892.56;4803866;28;20070;-92
2022/05/19 16:09:08;;;;;;;0.93;0.40;;;;;;;-145.06;100.00;60892.56;4803188;28;20034;-91
2022/05/19 16:11:47;;;;;;;0.60;0.30;;;;;;;-145.06;100.00;60892.56;4816914;28;20117;-90
2022/05/19 16:14:28;;;;;;;0.32;0.30;;;;;;;-145.06;100.00;60892.56;4803862;28;20034;-91
2022/05/19 16:17:08;;;;;;;0.38;0.30;;;;;;;-145.06;100.00;60892.56;4797849;28;20034;-91
2022/05/19 16:19:47;;;;;;;0.80;0.38;;;;;;;-145.06;100.00;60892.56;4803724;28;20026;-91
2022/05/19 16:22:29;;;;;;;0.30;0.30;;;;;;;-145.06;100.00;60892.56;4804263;28;20293;-92
2022/05/19 16:25:11;;;;;;;0.75;0.32;;;;;;;-145.06;100.00;60892.56;4804152;28;20034;-93
2022/05/19 16:27:53;;;;;;;1.15;0.40;;;;;;;-145.06;100.00;60892.56;4804040;28;20041;-92
2022/05/19 16:30:34;;;;;;;0.90;0.40;;;;;;;-145.06;100.00;60892.56;4803407;28;20042;-92
2022/05/19 16:33:13;;;;;;;0.60;0.40;;;;;;;-145.06;100.00;60892.56;4803248;28;20041;-92
2022/05/19 16:35:53;;;;;;;1.27;0.38;;;;;;;-145.06;100.00;60892.56;4793681;28;20035;-93
2022/05/19 16:38:33;;;;;;;1.20;0.40;;;;;;;-145.06;100.00;60892.56;4785038;28;20336;-93
2022/05/19 16:41:13;;;;;;;0.55;0.55;;;;;;;-145.06;100.00;60892.56;4796043;28;20113;-92
2022/05/19 16:43:52;;;;;;;0.90;0.40;;;;;;;-145.06;100.00;60892.56;4817320;28;20038;-93
2022/05/19 16:46:31;;;;;;;0.63;0.40;;;;;;;-145.06;100.00;60892.56;4803308;28;20038;-92
2022/05/19 16:49:10;;;;;;;0.60;0.38;;;;;;;-145.06;100.00;60892.56;4803400;28;20117;-92
2022/05/19 16:51:49;;;;;;;0.60;0.40;;;;;;;-145.06;100.00;60892.56;4803089;28;20121;-93
2022/05/19 16:57:48;;;;;;;0.63;0.38;;;;;;;-145.06;100.00;60892.56;4815553;28;20033;-92
2022/05/19 17:00:33;;;;;;;0.73;0.50;;;;;;;-145.06;100.00;60892.56;4802515;28;20061;-95
2022/05/19 17:03:14;;;;;;;0.80;0.43;;;;;;;-145.06;100.00;60892.56;4799062;28;20385;-93
2022/05/19 17:05:54;;;;;;;1.25;0.30;;;;;;;-145.06;100.00;60892.56;4802222;28;20035;-92
2022/05/19 17:08:39;;;;;;;0.70;0.30;;;;;;;23.04;100.00;60892.56;4803633;28;20699;-92
2022/05/19 17:11:19;;;;;;;0.30;0.30;;;;;;;-145.06;100.00;60892.56;4798081;28;20038;-92
2022/05/19 17:13:58;;;;;;;0.40;0.40;;;;;;;-145.06;100.00;60892.56;4794953;28;20046;-93
2022/05/19 17:16:40;;;;;;;0.80;0.52;;;;;;;-145.06;100.00;60892.56;4784654;28;20540;-93
2022/05/19 17:19:20;;;;;;;0.73;0.40;;;;;;;-145.06;100.00;60892.56;4800153;28;20046;-93
2022/05/19 17:21:59;;;;;;;0.90;0.60;;;;;;;23.04;100.00;60892.56;4802936;28;20046;-93
2022/05/19 17:24:38;;;;;;;0.65;0.40;;;;;;;-145.06;100.00;60892.56;4803066;28;20066;-93
2022/05/19 17:27:18;;;;;;;0.60;0.40;;;;;;;-145.06;100.00;60892.56;4794406;28;20061;-94
2022/05/19 17:29:57;;;;;;;0.40;0.40;;;;;;;-145.06;100.00;60892.56;4821503;28;20069;-93
2022/05/19 17:32:36;;;;;;;0.40;0.30;;;;;;;-145.06;100.00;60892.56;4821386;28;20038;-93
2022/05/19 17:35:18;;;;;;;0.73;0.40;;;;;;;-145.06;100.00;60892.56;4802227;28;20030;-94
2022/05/19 17:37:57;;;;;;;0.40;0.40;;;;;;;-145.06;100.00;60892.56;4802793;28;20113;-94
2022/05/19 17:40:41;;;;;;;0.70;0.50;;;;;;;-145.06;100.00;60892.56;4799484;28;20524;-91
2022/05/19 17:43:21;;;;;;;1.25;0.32;;;;;;;-145.06;100.00;60892.56;4794618;28;20050;-92
2022/05/19 17:46:00;;;;;;;0.60;0.45;;;;;;;-145.06;100.00;60892.56;4821717;28;20492;-93
2022/05/19 17:48:39;;;;;;;0.55;0.50;;;;;;;-145.06;100.00;60892.56;4821385;28;20037;-92
2022/05/19 17:51:18;;;;;;;0.65;0.40;;;;;;;-145.06;100.00;60892.56;4808678;28;20042;-94
2022/05/19 17:53:57;;;;;;;0.70;0.45;;;;;;;22.98;100.00;60892.56;4802370;28;20496;-94
2022/05/19 17:56:36;;;;;;;0.63;0.40;;;;;;;-145.06;100.00;60892.56;4803764;28;20447;-95
2022/05/19 17:59:15;;;;;;;0.40;0.35;;;;;;;-145.06;100.00;60892.56;4803467;28;20042;-94
2022/05/19 18:01:55;;;;;;;0.43;0.40;;;;;;;-145.06;100.00;60892.56;5172493;23;20073;-93
2022/05/19 18:04:34;;;;;;;0.73;0.40;;;;;;;-145.06;100.00;60892.56;4822317;28;20116;-93
2022/05/19 18:07:18;;;;;;;0.68;0.40;;;;;;;-145.06;100.00;60892.56;4822086;28;20682;-92
2022/05/19 18:09:57;;;;;;;0.88;0.45;;;;;;;-145.06;100.00;60892.56;4821559;28;20045;-93
2022/05/19 18:19:45;;;;;;;0.60;0.32;;;;;;;-145.06;100.00;60892.56;4722863;29;20044;-91
2022/05/19 18:22:35;;;;;;;0.55;0.40;;;;;;;-145.06;100.00;60892.56;4709838;29;20040;-94
2022/05/19 18:25:15;;;;;;;0.40;0.20;;;;;;;-145.06;100.00;60892.56;4724094;29;20032;-92
2022/05/19 18:27:54;;;;;;;1.10;0.50;;;;;;;-145.06;100.00;60892.56;4794131;28;20042;-92
2022/05/19 18:30:34;;;;;;;0.70;0.50;;;;;;;-145.06;100.00;60892.56;4804625;28;20038;-92
2022/05/19 18:33:18;;;;;;;0.88;0.50;;;;;;;-145.06;100.00;60892.56;4821501;28;20033;-92
2022/05/19 18:35:58;;;;;;;0.80;0.50;;;;;;;-145.06;100.00;60892.56;4821352;28;20030;-92
2022/05/19 18:38:42;;;;;;;1.13;0.60;;;;;;;-145.06;100.00;60892.56;4821853;28;20029;-92
2022/05/19 18:45:08;;;;;;;0.52;0.45;;;;;;;-145.06;100.00;60892.56;4842578;28;20025;-92
2022/05/19 18:47:47;;;;;;;0.55;0.52;;;;;;;-145.06;100.00;60892.56;4833400;28;20105;-92
2022/05/19 18:50:28;;;;;;;1.15;0.60;;;;;;;-145.06;100.00;60892.56;4821107;28;20037;-92
2022/05/19 18:53:17;;;;;;;0.40;0.40;;;;;;;-145.06;100.00;60892.56;4816867;28;20038;-91
2022/05/19 18:56:07;;;;;;;0.77;0.40;;;;;;;-145.06;100.00;60892.56;4802557;28;20105;-92
2022/05/19 18:58:49;;;;;;;0.70;0.38;;;;;;;-145.06;100.00;60892.56;4830595;28;20468;-94
2022/05/19 19:05:26;;;;;;;0.57;0.40;;;;;;;-145.06;100.00;60892.56;4799504;28;20476;-92
2022/05/19 19:08:47;;;;;;;0.40;0.40;;;;;;;-145.06;100.00;60892.56;4824557;28;20041;-93
2022/05/19 19:13:11;;;;;;;;;;;;;;;;;;;;;
2022/05/19 19:16:13;;;;;;;;;;;;;;;;;;;;;
2022/05/19 19:22:28;;;;;;;1.10;0.40;;;;;;;31.47;100.00;60892.56;4838892;28;20065;-92
2022/05/19 19:25:22;;;;;;;0.80;0.57;;;;;;;-145.06;100.00;60892.56;4822811;28;20026;-92
2022/05/19 19:28:19;;;;;;;0.60;0.40;;;;;;;-145.06;100.00;60892.56;4827147;28;20117;-92
